createdAt,value
2018-06-13T00:00:32.541Z,0
2018-06-13T00:01:42.612Z,0
2018-06-13T00:02:52.421Z,0
2018-06-13T00:04:02.005Z,0
2018-06-13T00:05:11.821Z,0
2018-06-13T00:06:21.363Z,0
2018-06-13T00:07:31.479Z,0
2018-06-13T00:08:41.678Z,0
2018-06-13T00:09:51.751Z,0
2018-06-13T00:11:01.841Z,0
2018-06-13T00:12:11.930Z,0
2018-06-13T00:13:22.106Z,0
2018-06-13T00:14:32.186Z,0
2018-06-13T00:15:42.268Z,0
2018-06-13T00:16:52.336Z,0
2018-06-13T00:18:02.425Z,0
2018-06-13T00:19:12.513Z,0
2018-06-13T00:20:22.320Z,0
2018-06-13T00:21:32.146Z,0
2018-06-13T00:22:42.206Z,0
2018-06-13T00:23:52.023Z,0
2018-06-13T00:25:02.113Z,0
2018-06-13T00:26:11.949Z,0
2018-06-13T00:27:22.031Z,0
2018-06-13T00:28:31.874Z,0
2018-06-13T00:29:42.010Z,0
2018-06-13T00:30:52.081Z,0
2018-06-13T00:32:02.166Z,0
2018-06-13T00:33:12.238Z,0
2018-06-13T00:34:22.315Z,0
2018-06-13T00:35:32.393Z,0
2018-06-13T00:36:42.519Z,0
2018-06-13T00:37:52.591Z,0
2018-06-13T00:39:02.676Z,0
2018-06-13T00:40:12.230Z,0
2018-06-13T00:41:22.042Z,0
2018-06-13T00:42:32.111Z,0
2018-06-13T00:43:42.203Z,0
2018-06-13T00:44:52.021Z,0
2018-06-13T00:46:01.783Z,0
2018-06-13T00:47:11.701Z,0
2018-06-13T00:48:21.721Z,0
2018-06-13T00:49:31.740Z,0
2018-06-13T00:50:41.856Z,0
2018-06-13T00:51:51.877Z,0
2018-06-13T00:53:01.883Z,0
2018-06-13T00:54:11.913Z,0
2018-06-13T00:55:21.926Z,0
2018-06-13T00:56:31.689Z,0
2018-06-13T00:57:41.706Z,0
2018-06-13T00:58:51.714Z,0
2018-06-13T01:00:00.962Z,0
2018-06-13T01:01:10.968Z,0
2018-06-13T01:02:20.972Z,0
2018-06-13T01:03:30.981Z,0
2018-06-13T01:04:40.988Z,0
2018-06-13T01:05:50.503Z,0
2018-06-13T01:07:00.535Z,0
2018-06-13T01:08:10.565Z,0
2018-06-13T01:09:20.624Z,0
2018-06-13T01:10:30.704Z,0
2018-06-13T01:11:40.510Z,0
2018-06-13T01:12:50.588Z,0
2018-06-13T01:14:00.665Z,0
2018-06-13T01:15:10.747Z,0
2018-06-13T01:16:20.808Z,0
2018-06-13T01:17:30.875Z,0
2018-06-13T01:18:40.677Z,0
2018-06-13T01:19:50.504Z,0
2018-06-13T01:21:00.581Z,0
2018-06-13T01:22:10.837Z,0
2018-06-13T01:23:20.919Z,0
2018-06-13T01:24:30.987Z,0
2018-06-13T01:25:40.819Z,0
2018-06-13T01:26:50.885Z,0
2018-06-13T01:28:00.693Z,0
2018-06-13T01:29:10.766Z,0
2018-06-13T01:30:20.895Z,0
2018-06-13T01:31:30.991Z,0
2018-06-13T01:32:41.067Z,0
2018-06-13T01:33:51.152Z,0
2018-06-13T01:35:00.975Z,0
2018-06-13T01:36:11.106Z,0
2018-06-13T01:37:21.224Z,0
2018-06-13T01:38:31.296Z,0
2018-06-13T01:39:41.389Z,0
2018-06-13T01:40:51.436Z,0
2018-06-13T01:42:01.287Z,0
2018-06-13T01:43:11.351Z,0
2018-06-13T01:44:21.450Z,0
2018-06-13T01:45:31.712Z,0
2018-06-13T01:46:41.774Z,0
2018-06-13T01:47:51.886Z,0
2018-06-13T01:49:01.951Z,0
2018-06-13T01:50:11.494Z,0
2018-06-13T01:51:21.575Z,0
2018-06-13T01:52:31.653Z,0
2018-06-13T01:53:41.507Z,0
2018-06-13T01:54:51.586Z,0
2018-06-13T01:56:01.392Z,0
2018-06-13T01:57:11.479Z,0
2018-06-13T01:58:21.288Z,0
2018-06-13T01:59:31.087Z,0
2018-06-13T02:00:41.149Z,0
2018-06-13T02:01:50.942Z,0
2018-06-13T02:03:01.031Z,0
2018-06-13T02:04:11.103Z,0
2018-06-13T02:05:20.655Z,0
2018-06-13T02:06:30.780Z,0
2018-06-13T02:07:40.855Z,0
2018-06-13T02:08:50.915Z,0
2018-06-13T02:10:00.993Z,0
2018-06-13T02:11:11.074Z,0
2018-06-13T02:12:20.893Z,0
2018-06-13T02:13:30.942Z,0
2018-06-13T02:14:40.762Z,0
2018-06-13T02:15:50.843Z,0
2018-06-13T02:17:00.649Z,0
2018-06-13T02:18:10.470Z,0
2018-06-13T02:19:20.551Z,0
2018-06-13T02:20:30.620Z,0
2018-06-13T02:21:40.795Z,0
2018-06-13T02:22:50.925Z,0
2018-06-13T02:24:00.220Z,0
2018-06-13T02:25:10.299Z,0
2018-06-13T02:26:20.368Z,0
2018-06-13T02:27:30.292Z,0
2018-06-13T02:28:40.417Z,0
2018-06-13T02:29:50.500Z,0
2018-06-13T02:31:00.585Z,0
2018-06-13T02:32:10.411Z,0
2018-06-13T02:33:20.492Z,0
2018-06-13T02:34:30.329Z,0
2018-06-13T02:35:40.411Z,0
2018-06-13T02:36:50.503Z,0
2018-06-13T02:38:01.231Z,0
2018-06-13T02:39:11.035Z,0
2018-06-13T02:40:21.158Z,0
2018-06-13T02:41:31.239Z,0
2018-06-13T02:42:41.327Z,0
2018-06-13T02:43:51.423Z,0
2018-06-13T02:45:01.511Z,0
2018-06-13T02:46:11.330Z,0
2018-06-13T02:47:21.409Z,0
2018-06-13T02:48:31.542Z,0
2018-06-13T02:49:41.366Z,0
2018-06-13T02:50:51.437Z,0
2018-06-13T02:52:01.534Z,0
2018-06-13T02:53:11.655Z,0
2018-06-13T02:54:21.739Z,0
2018-06-13T02:55:31.814Z,0
2018-06-13T02:56:41.614Z,0
2018-06-13T02:57:51.424Z,0
2018-06-13T02:59:00.984Z,0
2018-06-13T03:00:11.198Z,5
2018-06-13T03:01:21.014Z,5
2018-06-13T03:02:31.085Z,5
2018-06-13T03:34:57.938Z,30
2018-06-13T03:36:07.993Z,30
2018-06-13T03:37:18.061Z,30
2018-06-13T03:38:28.134Z,35
2018-06-13T03:39:38.203Z,40
2018-06-13T03:40:48.018Z,40
2018-06-13T03:41:57.848Z,40
2018-06-13T03:43:07.909Z,45
2018-06-13T03:44:17.991Z,45
2018-06-13T03:45:28.064Z,50
2018-06-13T03:46:38.146Z,50
2018-06-13T03:47:47.967Z,55
2018-06-13T03:48:58.035Z,65
2018-06-13T03:50:07.846Z,70
2018-06-13T03:51:17.920Z,70
2018-06-13T03:52:42.365Z,80
2018-06-13T03:53:52.446Z,80
2018-06-13T03:55:02.515Z,85
2018-06-13T03:56:12.655Z,90
2018-06-13T03:57:22.479Z,90
2018-06-13T03:58:32.289Z,95
2018-06-13T03:59:42.092Z,95
2018-06-13T04:00:52.172Z,100
2018-06-13T04:02:02.368Z,100
2018-06-13T04:03:12.459Z,100
2018-06-13T04:04:22.582Z,105
2018-06-13T04:05:32.404Z,100
2018-06-13T04:06:42.487Z,95
2018-06-13T04:07:52.618Z,90
2018-06-13T04:09:02.444Z,90
2018-06-13T04:10:12.529Z,85
2018-06-13T04:11:22.358Z,85
2018-06-13T04:12:32.447Z,85
2018-06-13T04:13:42.378Z,90
2018-06-13T04:14:52.167Z,90
2018-06-13T04:16:02.245Z,100
2018-06-13T04:17:12.309Z,100
2018-06-13T04:18:22.133Z,125
2018-06-13T04:19:31.948Z,130
2018-06-13T04:20:42.013Z,125
2018-06-13T04:21:52.095Z,120
2018-06-13T04:23:02.178Z,125
2018-06-13T04:24:12.251Z,115
2018-06-13T04:25:22.330Z,115
2018-06-13T04:26:32.148Z,110
2018-06-13T04:27:42.221Z,90
2018-06-13T04:28:52.035Z,80
2018-06-13T04:30:01.849Z,75
2018-06-13T04:31:11.715Z,70
2018-06-13T04:32:21.283Z,70
2018-06-13T04:33:31.351Z,70
2018-06-13T04:34:41.157Z,85
2018-06-13T04:35:51.418Z,75
2018-06-13T04:37:01.182Z,65
2018-06-13T04:38:11.246Z,55
2018-06-13T04:39:21.337Z,50
2018-06-13T04:40:31.429Z,50
2018-06-13T04:41:40.994Z,55
2018-06-13T04:42:51.074Z,60
2018-06-13T04:44:01.146Z,65
2018-06-13T04:45:10.964Z,65
2018-06-13T04:46:21.044Z,65
2018-06-13T04:47:30.853Z,65
2018-06-13T04:48:40.973Z,75
2018-06-13T04:49:50.510Z,80
2018-06-13T04:51:00.600Z,80
2018-06-13T04:52:10.411Z,80
2018-06-13T04:53:20.479Z,90
2018-06-13T04:54:30.555Z,95
2018-06-13T04:55:40.635Z,100
2018-06-13T04:56:50.721Z,100
2018-06-13T04:58:00.526Z,100
2018-06-13T04:59:10.345Z,95
2018-06-13T05:00:20.501Z,95
2018-06-13T05:01:30.567Z,95
2018-06-13T05:02:40.149Z,95
2018-06-13T05:03:50.229Z,90
2018-06-13T05:05:00.301Z,90
2018-06-13T05:06:10.434Z,95
2018-06-13T05:07:20.515Z,100
2018-06-13T05:08:30.589Z,105
2018-06-13T05:09:40.657Z,110
2018-06-13T05:10:50.740Z,115
2018-06-13T05:12:00.597Z,125
2018-06-13T05:13:10.681Z,130
2018-06-13T05:14:20.517Z,130
2018-06-13T05:15:30.341Z,130
2018-06-13T05:16:40.143Z,130
2018-06-13T05:17:49.962Z,130
2018-06-13T05:19:00.055Z,130
2018-06-13T05:20:10.124Z,140
2018-06-13T05:21:19.671Z,150
2018-06-13T05:22:29.750Z,160
2018-06-13T05:23:39.560Z,170
2018-06-13T05:24:49.630Z,190
2018-06-13T05:25:59.453Z,215
2018-06-13T05:27:09.525Z,300
2018-06-13T05:28:19.585Z,255
2018-06-13T05:29:29.664Z,300
2018-06-13T05:30:39.490Z,220
2018-06-13T05:31:49.565Z,240
2018-06-13T05:32:59.649Z,250
2018-06-13T05:34:09.711Z,310
2018-06-13T05:35:19.533Z,385
2018-06-13T05:36:29.358Z,395
2018-06-13T05:37:39.431Z,370
2018-06-13T05:38:48.999Z,335
2018-06-13T05:39:58.865Z,380
2018-06-13T05:41:08.951Z,355
2018-06-13T05:42:18.762Z,400
2018-06-13T05:43:28.338Z,410
2018-06-13T05:44:38.424Z,415
2018-06-13T05:45:48.501Z,410
2018-06-13T05:46:58.600Z,370
2018-06-13T05:48:08.416Z,365
2018-06-13T05:49:18.231Z,280
2018-06-13T05:50:28.302Z,240
2018-06-13T05:51:38.382Z,225
2018-06-13T05:52:48.456Z,230
2018-06-13T05:53:58.275Z,235
2018-06-13T05:55:08.635Z,225
2018-06-13T05:56:18.451Z,210
2018-06-13T05:57:28.533Z,205
2018-06-13T05:58:38.371Z,210
2018-06-13T05:59:48.187Z,225
2018-06-13T06:00:58.269Z,255
2018-06-13T06:02:08.090Z,275
2018-06-13T06:03:18.176Z,280
2018-06-13T06:04:27.742Z,255
2018-06-13T06:05:37.826Z,230
2018-06-13T06:06:47.923Z,215
2018-06-13T06:07:57.994Z,210
2018-06-13T06:09:07.817Z,210
2018-06-13T06:10:17.780Z,220
2018-06-13T06:11:27.948Z,235
2018-06-13T06:12:38.034Z,240
2018-06-13T06:13:47.866Z,280
2018-06-13T06:14:57.671Z,265
2018-06-13T06:16:07.831Z,315
2018-06-13T06:17:17.930Z,285
2018-06-13T06:18:27.791Z,375
2018-06-13T06:19:37.613Z,245
2018-06-13T06:20:47.708Z,250
2018-06-13T06:21:57.790Z,275
2018-06-13T06:23:07.597Z,405
2018-06-13T06:24:17.670Z,245
2018-06-13T06:25:27.766Z,260
2018-06-13T06:26:37.839Z,355
2018-06-13T06:27:47.917Z,280
2018-06-13T06:28:57.997Z,385
2018-06-13T06:30:07.806Z,380
2018-06-13T06:31:17.890Z,370
2018-06-13T06:32:27.746Z,365
2018-06-13T06:33:37.858Z,360
2018-06-13T06:34:47.942Z,355
2018-06-13T06:35:58.025Z,355
2018-06-13T06:37:07.901Z,365
2018-06-13T06:38:17.988Z,355
2018-06-13T06:39:28.060Z,350
2018-06-13T06:40:38.150Z,335
2018-06-13T06:41:48.228Z,345
2018-06-13T06:42:57.797Z,340
2018-06-13T06:44:07.879Z,350
2018-06-13T06:45:17.980Z,350
2018-06-13T06:46:28.073Z,350
2018-06-13T06:47:38.152Z,345
2018-06-13T06:48:48.323Z,340
2018-06-13T06:49:58.159Z,335
2018-06-13T06:51:08.292Z,330
2018-06-13T06:52:18.162Z,300
2018-06-13T06:53:28.236Z,315
2018-06-13T06:54:38.316Z,320
2018-06-13T06:55:48.633Z,315
2018-06-13T06:56:58.742Z,305
2018-06-13T06:58:08.313Z,305
2018-06-13T06:59:18.424Z,295
2018-06-13T07:00:28.528Z,295
2018-06-13T07:01:38.629Z,290
2018-06-13T07:02:48.990Z,285
2018-06-13T07:03:59.080Z,275
2018-06-13T07:05:09.202Z,220
2018-06-13T07:06:19.037Z,220
2018-06-13T07:07:28.851Z,255
2018-06-13T07:08:38.927Z,210
2018-06-13T07:09:48.751Z,230
2018-06-13T07:10:58.561Z,255
2018-06-13T07:12:08.387Z,260
2018-06-13T07:13:19.119Z,265
2018-06-13T07:14:29.094Z,260
2018-06-13T07:15:39.215Z,255
2018-06-13T07:16:49.433Z,260
2018-06-13T07:17:59.286Z,265
2018-06-13T07:19:09.653Z,265
2018-06-13T07:20:19.762Z,260
2018-06-13T07:21:29.849Z,260
2018-06-13T07:22:39.938Z,255
2018-06-13T07:23:50.035Z,255
2018-06-13T07:25:00.010Z,265
2018-06-13T07:26:10.118Z,275
2018-06-13T07:27:19.936Z,285
2018-06-13T07:28:30.019Z,290
2018-06-13T07:29:40.127Z,285
2018-06-13T07:30:50.217Z,275
2018-06-13T07:32:00.297Z,260
2018-06-13T07:33:10.364Z,220
2018-06-13T07:34:20.512Z,200
2018-06-13T07:35:30.637Z,200
2018-06-13T07:36:40.748Z,190
2018-06-13T07:37:50.838Z,180
2018-06-13T07:39:00.965Z,170
2018-06-13T07:40:11.079Z,175
2018-06-13T07:41:20.929Z,180
2018-06-13T07:42:31.003Z,185
2018-06-13T07:43:41.152Z,190
2018-06-13T07:44:51.230Z,185
2018-06-13T07:46:01.302Z,180
2018-06-13T07:47:11.126Z,185
2018-06-13T07:48:21.198Z,205
2018-06-13T07:49:31.298Z,205
2018-06-13T07:50:41.410Z,205
2018-06-13T07:51:51.510Z,250
2018-06-13T07:53:01.581Z,255
2018-06-13T07:54:11.418Z,255
2018-06-13T07:55:21.798Z,265
2018-06-13T07:56:31.913Z,280
2018-06-13T07:57:42.014Z,280
2018-06-13T07:58:52.093Z,275
2018-06-13T08:00:01.913Z,275
2018-06-13T08:01:11.986Z,280
2018-06-13T08:02:22.357Z,280
2018-06-13T08:03:32.687Z,275
2018-06-13T08:04:42.515Z,255
2018-06-13T08:05:52.603Z,270
2018-06-13T08:07:02.231Z,280
2018-06-13T08:08:12.322Z,290
2018-06-13T08:09:22.396Z,295
2018-06-13T08:10:32.483Z,310
2018-06-13T08:11:42.589Z,320
2018-06-13T08:12:52.690Z,325
2018-06-13T08:14:02.784Z,340
2018-06-13T08:15:12.905Z,350
2018-06-13T08:16:22.997Z,360
2018-06-13T08:17:33.088Z,355
2018-06-13T08:18:43.210Z,325
2018-06-13T08:19:53.306Z,355
2018-06-13T08:21:03.134Z,345
2018-06-13T08:22:13.255Z,330
2018-06-13T08:23:23.323Z,315
2018-06-13T08:24:33.402Z,270
2018-06-13T08:25:43.249Z,270
2018-06-13T08:26:53.327Z,275
2018-06-13T08:28:03.426Z,275
2018-06-13T08:29:13.531Z,280
2018-06-13T08:30:23.667Z,270
2018-06-13T08:31:33.738Z,275
2018-06-13T08:32:43.837Z,270
2018-06-13T08:33:54.288Z,265
2018-06-13T08:35:04.393Z,250
2018-06-13T08:36:14.483Z,245
2018-06-13T08:37:24.573Z,235
2018-06-13T08:38:34.440Z,235
2018-06-13T08:39:44.588Z,235
2018-06-13T08:40:54.695Z,240
2018-06-13T08:42:04.859Z,245
2018-06-13T08:43:14.969Z,250
2018-06-13T08:44:24.827Z,260
2018-06-13T08:45:34.678Z,280
2018-06-13T08:46:44.778Z,265
2018-06-13T08:47:54.628Z,260
2018-06-13T08:49:04.441Z,260
2018-06-13T08:50:14.540Z,255
2018-06-13T08:51:24.397Z,255
2018-06-13T08:52:34.524Z,255
2018-06-13T08:53:44.675Z,250
2018-06-13T08:54:54.774Z,250
2018-06-13T08:56:04.879Z,250
2018-06-13T08:57:14.977Z,250
2018-06-13T08:58:25.081Z,250
2018-06-13T08:59:34.925Z,250
2018-06-13T09:00:45.050Z,260
2018-06-13T09:01:54.882Z,270
2018-06-13T09:03:04.956Z,270
2018-06-13T09:04:15.033Z,270
2018-06-13T09:05:25.101Z,270
2018-06-13T09:06:35.201Z,270
2018-06-13T09:07:45.287Z,265
2018-06-13T09:08:55.509Z,265
2018-06-13T09:10:05.621Z,275
2018-06-13T09:11:15.489Z,315
2018-06-13T09:12:25.592Z,330
2018-06-13T09:13:35.684Z,335
2018-06-13T09:14:45.797Z,330
2018-06-13T09:15:55.887Z,320
2018-06-13T09:17:06.147Z,260
2018-06-13T09:18:16.002Z,240
2018-06-13T09:19:26.161Z,230
2018-06-13T09:20:36.245Z,215
2018-06-13T09:21:45.821Z,205
2018-06-13T09:22:55.698Z,200
2018-06-13T09:24:05.507Z,195
2018-06-13T09:25:15.598Z,185
2018-06-13T09:26:25.682Z,165
2018-06-13T09:27:35.484Z,150
2018-06-13T09:28:45.668Z,130
2018-06-13T09:29:55.763Z,120
2018-06-13T09:31:05.852Z,115
2018-06-13T09:32:15.948Z,115
2018-06-13T09:33:26.042Z,110
2018-06-13T09:34:36.142Z,115
2018-06-13T09:35:46.257Z,110
2018-06-13T09:36:56.077Z,105
2018-06-13T09:38:05.908Z,105
2018-06-13T09:39:16.026Z,105
2018-06-13T09:40:25.586Z,105
2018-06-13T09:41:35.417Z,100
2018-06-13T09:42:45.260Z,100
2018-06-13T09:43:55.433Z,105
2018-06-13T09:45:05.320Z,105
2018-06-13T09:46:21.965Z,110
2018-06-13T09:47:31.789Z,115
2018-06-13T09:48:41.942Z,125
2018-06-13T09:49:52.048Z,135
2018-06-13T09:51:02.088Z,145
2018-06-13T09:52:11.926Z,165
2018-06-13T09:53:22.038Z,175
2018-06-13T09:54:32.288Z,195
2018-06-13T09:55:42.142Z,210
2018-06-13T09:56:52.532Z,225
2018-06-13T09:58:02.395Z,245
2018-06-13T09:59:12.482Z,300
2018-06-13T10:00:22.581Z,300
2018-06-13T10:01:32.409Z,345
2018-06-13T10:02:42.235Z,365
2018-06-13T10:03:52.342Z,360
2018-06-13T10:05:02.447Z,370
2018-06-13T10:06:12.527Z,355
2018-06-13T10:07:22.601Z,340
2018-06-13T10:08:32.423Z,335
2018-06-13T10:09:41.970Z,350
2018-06-13T10:10:52.087Z,355
2018-06-13T10:12:02.170Z,390
2018-06-13T10:13:12.301Z,405
2018-06-13T10:14:22.371Z,400
2018-06-13T10:15:32.444Z,395
2018-06-13T10:16:42.515Z,385
2018-06-13T10:17:52.370Z,375
2018-06-13T10:19:02.478Z,370
2018-06-13T10:20:12.311Z,355
2018-06-13T10:21:22.180Z,345
2018-06-13T10:22:32.262Z,335
2018-06-13T10:23:42.348Z,320
2018-06-13T10:24:51.895Z,315
2018-06-13T10:26:02.011Z,305
2018-06-13T10:27:12.122Z,295
2018-06-13T10:28:22.197Z,295
2018-06-13T10:29:32.294Z,295
2018-06-13T10:30:42.376Z,295
2018-06-13T10:31:51.955Z,295
2018-06-13T10:33:02.300Z,300
2018-06-13T10:34:12.441Z,290
2018-06-13T10:35:22.574Z,290
2018-06-13T10:36:32.427Z,295
2018-06-13T10:37:42.517Z,295
2018-06-13T10:38:52.550Z,295
2018-06-13T10:40:02.631Z,300
2018-06-13T10:41:12.512Z,300
2018-06-13T10:42:22.597Z,300
2018-06-13T10:43:32.677Z,305
2018-06-13T10:44:42.245Z,305
2018-06-13T10:45:52.329Z,305
2018-06-13T10:47:02.475Z,300
2018-06-13T10:48:12.296Z,300
2018-06-13T10:49:22.120Z,300
2018-06-13T10:50:32.217Z,315
2018-06-13T10:51:42.049Z,315
2018-06-13T10:52:52.121Z,320
2018-06-13T10:54:02.227Z,325
2018-06-13T10:55:12.133Z,325
2018-06-13T10:56:22.226Z,320
2018-06-13T10:57:32.313Z,300
2018-06-13T10:58:42.400Z,295
2018-06-13T10:59:52.503Z,330
2018-06-13T11:01:02.603Z,345
2018-06-13T11:02:12.692Z,340
2018-06-13T11:03:22.776Z,320
2018-06-13T11:04:32.836Z,300
2018-06-13T11:05:42.922Z,300
2018-06-13T11:06:53.001Z,325
2018-06-13T11:08:03.093Z,345
2018-06-13T11:09:13.179Z,360
2018-06-13T11:10:23.274Z,355
2018-06-13T11:11:33.378Z,320
2018-06-13T11:12:43.464Z,300
2018-06-13T11:13:53.278Z,295
2018-06-13T11:15:03.365Z,315
2018-06-13T11:16:13.483Z,345
2018-06-13T11:17:23.327Z,360
2018-06-13T11:18:33.455Z,325
2018-06-13T11:19:43.822Z,370
2018-06-13T11:20:53.897Z,340
2018-06-13T11:22:03.734Z,330
2018-06-13T11:23:13.826Z,330
2018-06-13T11:24:23.914Z,375
2018-06-13T11:25:34.010Z,395
2018-06-13T11:26:43.855Z,400
2018-06-13T11:27:54.005Z,400
2018-06-13T11:29:04.103Z,395
2018-06-13T11:30:14.198Z,345
2018-06-13T11:31:24.346Z,330
2018-06-13T11:32:34.170Z,330
2018-06-13T11:33:44.299Z,325
2018-06-13T11:34:54.394Z,325
2018-06-13T11:36:04.494Z,320
2018-06-13T11:37:14.300Z,330
2018-06-13T11:38:23.862Z,340
2018-06-13T11:39:33.932Z,365
2018-06-13T11:40:44.030Z,380
2018-06-13T11:41:54.111Z,385
2018-06-13T11:43:04.206Z,385
2018-06-13T11:44:14.324Z,390
2018-06-13T11:45:24.413Z,405
2018-06-13T11:46:34.519Z,410
2018-06-13T11:47:44.611Z,410
2018-06-13T11:48:54.701Z,400
2018-06-13T11:50:04.800Z,375
2018-06-13T11:51:14.645Z,330
2018-06-13T11:52:24.727Z,345
2018-06-13T11:53:34.710Z,335
2018-06-13T11:54:44.802Z,330
2018-06-13T11:55:54.904Z,310
2018-06-13T11:57:04.988Z,325
2018-06-13T11:58:14.816Z,290
2018-06-13T11:59:24.648Z,275
2018-06-13T12:00:35.068Z,270
2018-06-13T12:01:45.305Z,260
2018-06-13T12:02:55.451Z,265
2018-06-13T12:04:05.546Z,265
2018-06-13T12:05:15.389Z,260
2018-06-13T12:06:25.503Z,265
2018-06-13T12:07:35.602Z,255
2018-06-13T12:08:45.700Z,255
2018-06-13T12:09:55.532Z,260
2018-06-13T12:11:05.679Z,270
2018-06-13T12:12:15.762Z,275
2018-06-13T12:13:25.841Z,285
2018-06-13T12:14:35.984Z,290
2018-06-13T12:15:46.083Z,295
2018-06-13T12:16:56.382Z,295
2018-06-13T12:18:06.470Z,305
2018-06-13T12:19:16.563Z,315
2018-06-13T12:20:26.695Z,315
2018-06-13T12:21:36.795Z,315
2018-06-13T12:22:46.997Z,315
2018-06-13T12:23:57.084Z,305
2018-06-13T12:25:07.191Z,300
2018-06-13T12:26:17.282Z,285
2018-06-13T12:27:27.091Z,280
2018-06-13T12:28:37.012Z,275
2018-06-13T12:29:47.145Z,275
2018-06-13T12:30:57.257Z,260
2018-06-13T12:32:07.675Z,250
2018-06-13T12:33:17.257Z,240
2018-06-13T12:34:27.298Z,240
2018-06-13T12:35:37.156Z,250
2018-06-13T12:36:47.275Z,260
2018-06-13T12:37:57.429Z,260
2018-06-13T12:39:07.701Z,255
2018-06-13T12:40:18.001Z,245
2018-06-13T12:41:28.131Z,235
2018-06-13T12:42:38.227Z,235
2018-06-13T12:43:48.316Z,240
2018-06-13T12:44:58.413Z,250
2018-06-13T12:46:08.228Z,260
2018-06-13T12:47:17.795Z,275
2018-06-13T12:48:27.919Z,275
2018-06-13T12:49:38.012Z,265
2018-06-13T12:50:48.196Z,260
2018-06-13T12:51:57.980Z,270
2018-06-13T12:53:07.830Z,275
2018-06-13T12:54:17.914Z,285
2018-06-13T12:55:27.746Z,295
2018-06-13T12:56:37.588Z,305
2018-06-13T12:57:47.418Z,300
2018-06-13T12:58:58.134Z,285
2018-06-13T13:00:08.245Z,265
2018-06-13T13:01:18.341Z,235
2018-06-13T13:02:28.151Z,220
2018-06-13T13:03:38.010Z,220
2018-06-13T13:04:48.067Z,220
2018-06-13T13:05:57.917Z,220
2018-06-13T13:07:07.727Z,220
2018-06-13T13:08:17.778Z,220
2018-06-13T13:09:27.586Z,215
2018-06-13T13:10:37.650Z,215
2018-06-13T13:11:47.584Z,215
2018-06-13T13:12:57.633Z,210
2018-06-13T13:14:07.831Z,205
2018-06-13T13:15:17.895Z,200
2018-06-13T13:16:28.029Z,190
2018-06-13T13:17:38.137Z,185
2018-06-13T13:18:48.336Z,180
2018-06-13T13:19:58.373Z,185
2018-06-13T13:21:08.449Z,205
2018-06-13T13:22:18.240Z,220
2018-06-13T13:23:28.095Z,220
2018-06-13T13:24:37.616Z,215
2018-06-13T13:25:47.665Z,215
2018-06-13T13:26:57.787Z,210
2018-06-13T13:28:08.022Z,200
2018-06-13T13:29:18.130Z,185
2018-06-13T13:30:28.432Z,170
2018-06-13T13:31:38.499Z,160
2018-06-13T13:32:48.545Z,135
2018-06-13T13:33:58.685Z,120
2018-06-13T13:35:08.605Z,115
2018-06-13T13:36:18.652Z,120
2018-06-13T13:37:28.704Z,120
2018-06-13T13:38:38.272Z,110
2018-06-13T13:39:48.079Z,105
2018-06-13T13:40:57.920Z,90
2018-06-13T13:42:08.003Z,75
2018-06-13T13:43:18.064Z,65
2018-06-13T13:44:28.132Z,55
2018-06-13T13:45:38.733Z,45
2018-06-13T13:46:48.566Z,40
2018-06-13T13:47:58.654Z,40
2018-06-13T13:49:08.747Z,40
2018-06-13T13:50:18.840Z,40
2018-06-13T13:51:28.930Z,40
2018-06-13T13:52:39.024Z,40
2018-06-13T13:53:49.119Z,40
2018-06-13T13:54:59.227Z,40
2018-06-13T13:56:09.334Z,40
2018-06-13T13:57:19.402Z,45
2018-06-13T13:58:28.979Z,45
2018-06-13T13:59:39.072Z,50
2018-06-13T14:00:49.165Z,50
2018-06-13T14:01:59.291Z,50
2018-06-13T14:03:09.136Z,50
2018-06-13T14:04:19.295Z,45
2018-06-13T14:05:29.398Z,45
2018-06-13T14:06:39.525Z,45
2018-06-13T14:07:49.679Z,40
2018-06-13T14:08:59.820Z,40
2018-06-13T14:10:10.049Z,40
2018-06-13T14:11:19.942Z,45
2018-06-13T14:12:30.494Z,40
2018-06-13T14:13:40.637Z,40
2018-06-13T14:14:50.770Z,40
2018-06-13T14:16:00.885Z,40
2018-06-13T14:17:11.034Z,40
2018-06-13T14:18:21.166Z,40
2018-06-13T14:19:31.026Z,40
2018-06-13T14:20:41.156Z,40
2018-06-13T14:21:51.339Z,40
2018-06-13T14:23:01.446Z,40
2018-06-13T14:24:11.016Z,40
2018-06-13T14:25:21.147Z,40
2018-06-13T14:26:31.267Z,45
2018-06-13T14:27:41.418Z,45
2018-06-13T14:28:51.269Z,45
2018-06-13T14:30:01.123Z,45
2018-06-13T14:31:11.266Z,45
2018-06-13T14:32:21.115Z,45
2018-06-13T14:33:31.276Z,45
2018-06-13T14:34:41.368Z,50
2018-06-13T14:35:51.530Z,50
2018-06-13T14:37:01.653Z,50
2018-06-13T14:38:11.779Z,50
2018-06-13T14:39:21.960Z,55
2018-06-13T14:40:32.075Z,60
2018-06-13T14:41:41.940Z,60
2018-06-13T14:42:52.047Z,65
2018-06-13T14:44:01.898Z,70
2018-06-13T14:45:12.334Z,75
2018-06-13T14:46:22.533Z,75
2018-06-13T14:47:32.651Z,80
2018-06-13T14:48:42.981Z,80
2018-06-13T14:49:53.143Z,85
2018-06-13T14:51:03.304Z,85
2018-06-13T14:52:13.420Z,85
2018-06-13T14:53:23.519Z,90
2018-06-13T14:54:33.112Z,90
2018-06-13T14:55:43.220Z,95
2018-06-13T14:56:53.712Z,90
2018-06-13T14:58:03.595Z,90
2018-06-13T14:59:13.709Z,100
2018-06-13T15:00:23.828Z,90
2018-06-13T15:01:33.939Z,90
2018-06-13T15:02:44.122Z,90
2018-06-13T15:03:54.239Z,90
2018-06-13T15:05:04.347Z,90
2018-06-13T15:06:14.461Z,95
2018-06-13T15:07:24.597Z,95
2018-06-13T15:08:34.726Z,95
2018-06-13T15:09:44.860Z,100
2018-06-13T15:10:54.726Z,100
2018-06-13T15:12:04.836Z,105
2018-06-13T15:13:14.798Z,105
2018-06-13T15:14:24.689Z,105
2018-06-13T15:15:34.819Z,105
2018-06-13T15:16:44.399Z,105
2018-06-13T15:17:54.248Z,110
2018-06-13T15:19:04.492Z,110
2018-06-13T15:20:14.301Z,110
2018-06-13T15:21:24.411Z,110
2018-06-13T15:22:34.533Z,105
2018-06-13T15:23:44.652Z,95
2018-06-13T15:24:54.780Z,90
2018-06-13T15:26:04.907Z,80
2018-06-13T15:27:15.053Z,80
2018-06-13T15:28:25.166Z,80
2018-06-13T15:29:35.277Z,75
2018-06-13T15:30:45.123Z,75
2018-06-13T15:31:55.026Z,70
2018-06-13T15:33:05.143Z,65
2018-06-13T15:34:15.273Z,65
2018-06-13T15:35:25.376Z,60
2018-06-13T15:36:35.753Z,60
2018-06-13T15:37:45.624Z,60
2018-06-13T15:38:55.745Z,55
2018-06-13T15:40:06.289Z,55
2018-06-13T15:41:16.446Z,55
2018-06-13T15:42:26.563Z,50
2018-06-13T15:43:36.692Z,50
2018-06-13T15:44:46.576Z,50
2018-06-13T15:45:56.703Z,50
2018-06-13T15:47:06.857Z,50
2018-06-13T15:48:16.987Z,45
2018-06-13T15:49:27.158Z,45
2018-06-13T15:50:37.103Z,45
2018-06-13T15:51:47.225Z,45
2018-06-13T15:52:57.354Z,50
2018-06-13T15:54:07.493Z,50
2018-06-13T15:55:17.622Z,55
2018-06-13T15:56:27.758Z,55
2018-06-13T15:57:37.961Z,55
2018-06-13T15:58:47.820Z,50
2018-06-13T15:59:57.951Z,50
2018-06-13T16:01:08.100Z,45
2018-06-13T16:02:18.212Z,45
2018-06-13T16:03:28.341Z,45
2018-06-13T16:04:38.462Z,45
2018-06-13T16:05:48.589Z,45
2018-06-13T16:06:58.478Z,45
2018-06-13T16:08:08.603Z,45
2018-06-13T16:09:18.766Z,50
2018-06-13T16:10:28.635Z,50
2018-06-13T16:11:38.768Z,50
2018-06-13T16:12:48.886Z,45
2018-06-13T16:13:58.982Z,45
2018-06-13T16:15:09.080Z,45
2018-06-13T16:16:18.924Z,40
2018-06-13T16:17:29.052Z,40
2018-06-13T16:18:39.144Z,45
2018-06-13T16:19:49.275Z,45
2018-06-13T16:20:59.407Z,50
2018-06-13T16:22:09.244Z,50
2018-06-13T16:23:19.368Z,55
2018-06-13T16:24:29.221Z,55
2018-06-13T16:25:39.392Z,55
2018-06-13T16:26:49.494Z,50
2018-06-13T16:27:59.323Z,50
2018-06-13T16:29:09.431Z,50
2018-06-13T16:30:19.619Z,45
2018-06-13T16:31:29.742Z,45
2018-06-13T16:32:39.871Z,45
2018-06-13T16:33:49.722Z,45
2018-06-13T16:34:59.834Z,40
2018-06-13T16:36:09.995Z,40
2018-06-13T16:37:20.098Z,40
2018-06-13T16:38:30.218Z,40
2018-06-13T16:39:40.347Z,40
2018-06-13T16:40:50.209Z,40
2018-06-13T16:42:00.330Z,40
2018-06-13T16:43:10.451Z,40
2018-06-13T16:44:20.586Z,40
2018-06-13T16:45:30.708Z,40
2018-06-13T16:46:40.820Z,45
2018-06-13T16:47:51.002Z,45
2018-06-13T16:49:01.138Z,50
2018-06-13T16:50:11.246Z,55
2018-06-13T16:51:21.345Z,60
2018-06-13T16:52:31.638Z,65
2018-06-13T16:53:41.814Z,70
2018-06-13T16:54:51.926Z,70
2018-06-13T16:56:02.024Z,75
2018-06-13T16:57:11.880Z,75